sensor_id;sensor_type;location;lat;lon;timestamp;P1;durP1;ratioP1;P2;durP2;ratioP2
11287;SDS011;5700;50.996;7.044;2023-01-28T00:02:36;2.90;;;1.35;;
11287;SDS011;5700;50.996;7.044;2023-01-28T00:05:38;3.30;;;1.42;;
11287;SDS011;5700;50.996;7.044;2023-01-28T00:08:39;3.30;;;1.60;;
11287;SDS011;5700;50.996;7.044;2023-01-28T00:11:42;12.05;;;2.72;;
11287;SDS011;5700;50.996;7.044;2023-01-28T00:14:44;4.00;;;2.10;;
11287;SDS011;5700;50.996;7.044;2023-01-28T00:17:46;4.07;;;1.50;;
11287;SDS011;5700;50.996;7.044;2023-01-28T00:20:54;5.72;;;1.75;;
11287;SDS011;5700;50.996;7.044;2023-01-28T00:23:57;2.40;;;1.27;;
11287;SDS011;5700;50.996;7.044;2023-01-28T00:27:00;3.00;;;1.10;;
11287;SDS011;5700;50.996;7.044;2023-01-28T00:30:01;3.47;;;1.75;;
11287;SDS011;5700;50.996;7.044;2023-01-28T00:33:03;3.45;;;1.45;;
11287;SDS011;5700;50.996;7.044;2023-01-28T00:36:05;4.40;;;2.33;;
11287;SDS011;5700;50.996;7.044;2023-01-28T00:39:09;3.72;;;2.13;;
11287;SDS011;5700;50.996;7.044;2023-01-28T00:42:13;4.32;;;2.20;;
11287;SDS011;5700;50.996;7.044;2023-01-28T00:45:14;4.70;;;2.22;;
11287;SDS011;5700;50.996;7.044;2023-01-28T00:48:16;4.88;;;2.10;;
11287;SDS011;5700;50.996;7.044;2023-01-28T00:51:18;5.35;;;2.78;;
11287;SDS011;5700;50.996;7.044;2023-01-28T00:54:19;4.15;;;2.40;;
11287;SDS011;5700;50.996;7.044;2023-01-28T00:57:22;4.40;;;2.47;;
11287;SDS011;5700;50.996;7.044;2023-01-28T01:00:24;5.22;;;2.30;;
11287;SDS011;5700;50.996;7.044;2023-01-28T01:03:26;4.05;;;2.22;;
11287;SDS011;5700;50.996;7.044;2023-01-28T01:06:28;6.90;;;2.72;;
11287;SDS011;5700;50.996;7.044;2023-01-28T01:09:30;5.78;;;2.75;;
11287;SDS011;5700;50.996;7.044;2023-01-28T01:12:33;5.45;;;2.10;;
11287;SDS011;5700;50.996;7.044;2023-01-28T01:15:34;4.70;;;2.15;;
11287;SDS011;5700;50.996;7.044;2023-01-28T01:18:36;2.67;;;1.85;;
11287;SDS011;5700;50.996;7.044;2023-01-28T01:21:40;5.97;;;2.80;;
11287;SDS011;5700;50.996;7.044;2023-01-28T01:24:42;4.13;;;2.05;;
11287;SDS011;5700;50.996;7.044;2023-01-28T01:27:46;3.65;;;2.05;;
11287;SDS011;5700;50.996;7.044;2023-01-28T01:30:49;3.97;;;2.00;;
11287;SDS011;5700;50.996;7.044;2023-01-28T01:33:50;4.63;;;2.55;;
11287;SDS011;5700;50.996;7.044;2023-01-28T01:36:52;4.75;;;2.63;;
11287;SDS011;5700;50.996;7.044;2023-01-28T01:39:54;4.22;;;2.20;;
11287;SDS011;5700;50.996;7.044;2023-01-28T01:42:57;4.97;;;2.55;;
11287;SDS011;5700;50.996;7.044;2023-01-28T01:45:59;6.07;;;2.92;;
11287;SDS011;5700;50.996;7.044;2023-01-28T01:49:03;4.22;;;2.45;;
11287;SDS011;5700;50.996;7.044;2023-01-28T01:52:09;5.53;;;2.70;;
11287;SDS011;5700;50.996;7.044;2023-01-28T01:55:15;5.28;;;2.67;;
11287;SDS011;5700;50.996;7.044;2023-01-28T01:58:22;4.70;;;2.47;;
11287;SDS011;5700;50.996;7.044;2023-01-28T02:01:25;6.45;;;3.10;;
11287;SDS011;5700;50.996;7.044;2023-01-28T02:04:28;3.60;;;2.25;;
11287;SDS011;5700;50.996;7.044;2023-01-28T02:07:34;6.43;;;3.03;;
11287;SDS011;5700;50.996;7.044;2023-01-28T02:10:36;4.88;;;2.90;;
11287;SDS011;5700;50.996;7.044;2023-01-28T02:13:39;6.20;;;3.13;;
11287;SDS011;5700;50.996;7.044;2023-01-28T02:16:47;7.13;;;3.40;;
11287;SDS011;5700;50.996;7.044;2023-01-28T02:19:50;5.80;;;3.22;;
11287;SDS011;5700;50.996;7.044;2023-01-28T02:23:03;4.15;;;2.55;;
11287;SDS011;5700;50.996;7.044;2023-01-28T02:30:01;6.78;;;3.40;;
11287;SDS011;5700;50.996;7.044;2023-01-28T02:33:07;5.53;;;2.83;;
11287;SDS011;5700;50.996;7.044;2023-01-28T02:36:14;4.45;;;2.40;;
11287;SDS011;5700;50.996;7.044;2023-01-28T02:39:19;6.07;;;3.30;;
11287;SDS011;5700;50.996;7.044;2023-01-28T02:42:24;6.65;;;3.17;;
11287;SDS011;5700;50.996;7.044;2023-01-28T02:45:30;10.20;;;4.03;;
11287;SDS011;5700;50.996;7.044;2023-01-28T02:48:46;9.35;;;3.70;;
11287;SDS011;5700;50.996;7.044;2023-01-28T02:51:52;8.95;;;4.07;;
11287;SDS011;5700;50.996;7.044;2023-01-28T02:55:02;9.00;;;4.53;;
11287;SDS011;5700;50.996;7.044;2023-01-28T02:58:09;9.18;;;3.85;;
11287;SDS011;5700;50.996;7.044;2023-01-28T03:01:21;9.65;;;4.43;;
11287;SDS011;5700;50.996;7.044;2023-01-28T03:04:25;8.35;;;3.90;;
11287;SDS011;5700;50.996;7.044;2023-01-28T03:07:29;14.38;;;4.20;;
11287;SDS011;5700;50.996;7.044;2023-01-28T03:10:31;9.48;;;4.50;;
11287;SDS011;5700;50.996;7.044;2023-01-28T03:13:32;9.15;;;4.88;;
11287;SDS011;5700;50.996;7.044;2023-01-28T03:16:49;11.70;;;5.13;;
11287;SDS011;5700;50.996;7.044;2023-01-28T03:20:06;9.10;;;4.50;;
11287;SDS011;5700;50.996;7.044;2023-01-28T03:23:25;8.32;;;4.20;;
11287;SDS011;5700;50.996;7.044;2023-01-28T03:26:43;9.63;;;5.03;;
11287;SDS011;5700;50.996;7.044;2023-01-28T03:30:04;8.60;;;4.55;;
11287;SDS011;5700;50.996;7.044;2023-01-28T03:33:25;9.57;;;4.38;;
11287;SDS011;5700;50.996;7.044;2023-01-28T03:36:41;9.93;;;4.68;;
11287;SDS011;5700;50.996;7.044;2023-01-28T03:39:50;11.68;;;4.78;;
11287;SDS011;5700;50.996;7.044;2023-01-28T03:42:52;11.48;;;5.32;;
11287;SDS011;5700;50.996;7.044;2023-01-28T03:45:55;9.13;;;5.05;;
11287;SDS011;5700;50.996;7.044;2023-01-28T03:48:59;11.65;;;4.72;;
11287;SDS011;5700;50.996;7.044;2023-01-28T03:52:00;11.80;;;5.35;;
11287;SDS011;5700;50.996;7.044;2023-01-28T03:55:02;10.18;;;5.32;;
11287;SDS011;5700;50.996;7.044;2023-01-28T03:58:12;10.23;;;4.97;;
11287;SDS011;5700;50.996;7.044;2023-01-28T04:01:14;9.43;;;5.03;;
11287;SDS011;5700;50.996;7.044;2023-01-28T04:04:17;11.48;;;5.57;;
11287;SDS011;5700;50.996;7.044;2023-01-28T04:07:22;9.13;;;5.05;;
11287;SDS011;5700;50.996;7.044;2023-01-28T04:10:24;12.38;;;5.60;;
11287;SDS011;5700;50.996;7.044;2023-01-28T04:13:25;10.90;;;5.35;;
11287;SDS011;5700;50.996;7.044;2023-01-28T04:16:27;12.50;;;5.60;;
11287;SDS011;5700;50.996;7.044;2023-01-28T04:19:30;8.60;;;4.60;;
11287;SDS011;5700;50.996;7.044;2023-01-28T04:22:36;10.88;;;5.65;;
11287;SDS011;5700;50.996;7.044;2023-01-28T04:25:37;12.10;;;5.03;;
11287;SDS011;5700;50.996;7.044;2023-01-28T04:28:39;7.30;;;3.88;;
11287;SDS011;5700;50.996;7.044;2023-01-28T04:31:41;10.35;;;5.03;;
11287;SDS011;5700;50.996;7.044;2023-01-28T04:34:44;11.73;;;5.28;;
11287;SDS011;5700;50.996;7.044;2023-01-28T04:37:45;10.10;;;5.22;;
11287;SDS011;5700;50.996;7.044;2023-01-28T04:40:48;11.30;;;5.45;;
11287;SDS011;5700;50.996;7.044;2023-01-28T04:43:50;12.15;;;5.85;;
11287;SDS011;5700;50.996;7.044;2023-01-28T04:46:52;8.20;;;4.50;;
11287;SDS011;5700;50.996;7.044;2023-01-28T04:49:55;8.77;;;4.53;;
11287;SDS011;5700;50.996;7.044;2023-01-28T04:52:57;11.95;;;5.50;;
11287;SDS011;5700;50.996;7.044;2023-01-28T04:55:58;10.00;;;5.05;;
11287;SDS011;5700;50.996;7.044;2023-01-28T04:59:00;9.85;;;4.97;;
11287;SDS011;5700;50.996;7.044;2023-01-28T05:02:02;11.95;;;5.60;;
11287;SDS011;5700;50.996;7.044;2023-01-28T05:05:05;13.10;;;6.03;;
11287;SDS011;5700;50.996;7.044;2023-01-28T05:08:08;11.52;;;5.15;;
11287;SDS011;5700;50.996;7.044;2023-01-28T05:11:09;15.52;;;5.65;;
11287;SDS011;5700;50.996;7.044;2023-01-28T05:14:11;11.20;;;5.65;;
11287;SDS011;5700;50.996;7.044;2023-01-28T05:17:12;11.13;;;4.97;;
11287;SDS011;5700;50.996;7.044;2023-01-28T05:20:15;11.90;;;6.10;;
11287;SDS011;5700;50.996;7.044;2023-01-28T05:23:17;12.13;;;6.15;;
11287;SDS011;5700;50.996;7.044;2023-01-28T05:26:19;10.05;;;4.47;;
11287;SDS011;5700;50.996;7.044;2023-01-28T05:29:20;12.32;;;5.80;;
11287;SDS011;5700;50.996;7.044;2023-01-28T05:32:22;10.55;;;4.90;;
11287;SDS011;5700;50.996;7.044;2023-01-28T05:35:25;10.90;;;5.10;;
11287;SDS011;5700;50.996;7.044;2023-01-28T05:38:26;13.35;;;5.38;;
11287;SDS011;5700;50.996;7.044;2023-01-28T05:41:28;11.50;;;5.45;;
11287;SDS011;5700;50.996;7.044;2023-01-28T05:44:29;9.68;;;5.05;;
11287;SDS011;5700;50.996;7.044;2023-01-28T05:47:32;10.40;;;5.55;;
11287;SDS011;5700;50.996;7.044;2023-01-28T05:50:35;12.27;;;5.78;;
11287;SDS011;5700;50.996;7.044;2023-01-28T05:53:37;10.73;;;5.45;;
11287;SDS011;5700;50.996;7.044;2023-01-28T05:56:38;13.85;;;4.70;;
11287;SDS011;5700;50.996;7.044;2023-01-28T05:59:40;10.75;;;5.78;;
11287;SDS011;5700;50.996;7.044;2023-01-28T06:02:41;10.50;;;5.20;;
11287;SDS011;5700;50.996;7.044;2023-01-28T06:05:44;10.13;;;4.90;;
11287;SDS011;5700;50.996;7.044;2023-01-28T06:08:46;10.43;;;4.88;;
11287;SDS011;5700;50.996;7.044;2023-01-28T06:11:48;11.30;;;5.15;;
11287;SDS011;5700;50.996;7.044;2023-01-28T06:14:50;9.25;;;4.78;;
11287;SDS011;5700;50.996;7.044;2023-01-28T06:17:51;10.70;;;4.68;;
11287;SDS011;5700;50.996;7.044;2023-01-28T06:20:54;10.02;;;5.10;;
11287;SDS011;5700;50.996;7.044;2023-01-28T06:23:56;11.60;;;4.88;;
11287;SDS011;5700;50.996;7.044;2023-01-28T06:26:57;11.00;;;4.90;;
11287;SDS011;5700;50.996;7.044;2023-01-28T06:29:59;10.40;;;5.38;;
11287;SDS011;5700;50.996;7.044;2023-01-28T06:33:01;11.23;;;5.43;;
11287;SDS011;5700;50.996;7.044;2023-01-28T06:36:05;10.75;;;5.40;;
11287;SDS011;5700;50.996;7.044;2023-01-28T06:39:07;11.75;;;5.25;;
11287;SDS011;5700;50.996;7.044;2023-01-28T06:42:08;12.30;;;5.70;;
11287;SDS011;5700;50.996;7.044;2023-01-28T06:45:10;10.88;;;5.72;;
11287;SDS011;5700;50.996;7.044;2023-01-28T06:48:12;10.48;;;5.15;;
11287;SDS011;5700;50.996;7.044;2023-01-28T06:51:15;12.32;;;5.95;;
11287;SDS011;5700;50.996;7.044;2023-01-28T06:54:16;11.57;;;5.57;;
11287;SDS011;5700;50.996;7.044;2023-01-28T06:57:18;9.95;;;5.70;;
11287;SDS011;5700;50.996;7.044;2023-01-28T07:00:19;11.40;;;5.75;;
11287;SDS011;5700;50.996;7.044;2023-01-28T07:03:21;11.30;;;6.45;;
11287;SDS011;5700;50.996;7.044;2023-01-28T07:06:24;12.25;;;5.32;;
11287;SDS011;5700;50.996;7.044;2023-01-28T07:09:25;12.52;;;6.20;;
11287;SDS011;5700;50.996;7.044;2023-01-28T07:12:27;11.02;;;6.32;;
11287;SDS011;5700;50.996;7.044;2023-01-28T07:15:28;16.08;;;6.35;;
11287;SDS011;5700;50.996;7.044;2023-01-28T07:18:30;13.93;;;6.18;;
11287;SDS011;5700;50.996;7.044;2023-01-28T07:21:33;13.18;;;6.30;;
11287;SDS011;5700;50.996;7.044;2023-01-28T07:24:34;10.35;;;5.13;;
11287;SDS011;5700;50.996;7.044;2023-01-28T07:27:36;10.85;;;5.63;;
11287;SDS011;5700;50.996;7.044;2023-01-28T07:30:37;12.32;;;5.82;;
11287;SDS011;5700;50.996;7.044;2023-01-28T07:33:39;12.30;;;6.13;;
11287;SDS011;5700;50.996;7.044;2023-01-28T07:36:42;7.55;;;4.38;;
11287;SDS011;5700;50.996;7.044;2023-01-28T07:39:43;13.25;;;5.15;;
11287;SDS011;5700;50.996;7.044;2023-01-28T07:42:45;9.50;;;4.50;;
11287;SDS011;5700;50.996;7.044;2023-01-28T07:45:46;12.50;;;6.65;;
11287;SDS011;5700;50.996;7.044;2023-01-28T07:48:48;10.48;;;4.82;;
11287;SDS011;5700;50.996;7.044;2023-01-28T07:51:51;9.60;;;4.72;;
11287;SDS011;5700;50.996;7.044;2023-01-28T07:54:52;10.85;;;4.15;;
11287;SDS011;5700;50.996;7.044;2023-01-28T07:57:55;9.57;;;4.35;;
11287;SDS011;5700;50.996;7.044;2023-01-28T08:00:57;7.03;;;3.72;;
11287;SDS011;5700;50.996;7.044;2023-01-28T08:03:59;8.40;;;4.18;;
11287;SDS011;5700;50.996;7.044;2023-01-28T08:07:02;9.80;;;4.97;;
11287;SDS011;5700;50.996;7.044;2023-01-28T08:10:04;11.65;;;5.53;;
11287;SDS011;5700;50.996;7.044;2023-01-28T08:13:08;11.65;;;5.22;;
11287;SDS011;5700;50.996;7.044;2023-01-28T08:16:09;11.38;;;5.35;;
11287;SDS011;5700;50.996;7.044;2023-01-28T08:19:11;4.38;;;2.42;;
11287;SDS011;5700;50.996;7.044;2023-01-28T08:22:14;5.45;;;3.35;;
11287;SDS011;5700;50.996;7.044;2023-01-28T08:25:15;5.75;;;2.55;;
11287;SDS011;5700;50.996;7.044;2023-01-28T08:28:17;6.07;;;2.90;;
11287;SDS011;5700;50.996;7.044;2023-01-28T08:31:19;3.50;;;2.17;;
11287;SDS011;5700;50.996;7.044;2023-01-28T08:34:21;4.97;;;2.00;;
11287;SDS011;5700;50.996;7.044;2023-01-28T08:37:24;3.40;;;1.67;;
11287;SDS011;5700;50.996;7.044;2023-01-28T08:40:25;3.80;;;2.33;;
11287;SDS011;5700;50.996;7.044;2023-01-28T08:43:27;3.33;;;1.52;;
11287;SDS011;5700;50.996;7.044;2023-01-28T08:46:28;4.43;;;2.08;;
11287;SDS011;5700;50.996;7.044;2023-01-28T08:49:30;4.95;;;2.95;;
11287;SDS011;5700;50.996;7.044;2023-01-28T08:52:33;5.13;;;2.30;;
11287;SDS011;5700;50.996;7.044;2023-01-28T08:55:34;4.95;;;2.90;;
11287;SDS011;5700;50.996;7.044;2023-01-28T08:58:35;4.95;;;2.45;;
11287;SDS011;5700;50.996;7.044;2023-01-28T09:01:37;4.97;;;2.58;;
11287;SDS011;5700;50.996;7.044;2023-01-28T09:04:38;5.07;;;2.83;;
11287;SDS011;5700;50.996;7.044;2023-01-28T09:07:42;4.30;;;2.20;;
11287;SDS011;5700;50.996;7.044;2023-01-28T09:10:43;2.85;;;2.03;;
11287;SDS011;5700;50.996;7.044;2023-01-28T09:13:45;9.55;;;2.47;;
11287;SDS011;5700;50.996;7.044;2023-01-28T09:16:46;2.78;;;1.80;;
11287;SDS011;5700;50.996;7.044;2023-01-28T09:19:48;5.32;;;2.60;;
11287;SDS011;5700;50.996;7.044;2023-01-28T09:22:51;3.78;;;2.00;;
11287;SDS011;5700;50.996;7.044;2023-01-28T09:25:58;5.93;;;2.60;;
11287;SDS011;5700;50.996;7.044;2023-01-28T09:29:00;6.00;;;2.97;;
11287;SDS011;5700;50.996;7.044;2023-01-28T09:32:01;3.10;;;1.92;;
11287;SDS011;5700;50.996;7.044;2023-01-28T09:35:03;5.55;;;2.30;;
11287;SDS011;5700;50.996;7.044;2023-01-28T09:38:06;6.38;;;2.60;;
11287;SDS011;5700;50.996;7.044;2023-01-28T09:41:11;3.30;;;1.80;;
11287;SDS011;5700;50.996;7.044;2023-01-28T09:44:27;5.40;;;2.60;;
11287;SDS011;5700;50.996;7.044;2023-01-28T09:47:34;2.75;;;1.90;;
11287;SDS011;5700;50.996;7.044;2023-01-28T09:50:39;10.13;;;4.72;;
11287;SDS011;5700;50.996;7.044;2023-01-28T09:53:43;8.13;;;4.40;;
11287;SDS011;5700;50.996;7.044;2023-01-28T09:56:46;6.25;;;4.00;;
11287;SDS011;5700;50.996;7.044;2023-01-28T09:59:49;7.57;;;4.50;;
11287;SDS011;5700;50.996;7.044;2023-01-28T10:02:57;9.35;;;4.78;;
11287;SDS011;5700;50.996;7.044;2023-01-28T10:06:09;7.32;;;3.85;;
11287;SDS011;5700;50.996;7.044;2023-01-28T10:09:20;6.38;;;3.90;;
11287;SDS011;5700;50.996;7.044;2023-01-28T10:12:31;7.35;;;4.03;;
11287;SDS011;5700;50.996;7.044;2023-01-28T10:15:44;7.57;;;3.95;;
11287;SDS011;5700;50.996;7.044;2023-01-28T10:18:50;6.50;;;3.70;;
11287;SDS011;5700;50.996;7.044;2023-01-28T10:21:55;9.27;;;4.30;;
11287;SDS011;5700;50.996;7.044;2023-01-28T10:24:59;8.80;;;4.00;;
11287;SDS011;5700;50.996;7.044;2023-01-28T10:28:07;7.80;;;4.65;;
11287;SDS011;5700;50.996;7.044;2023-01-28T10:31:14;10.75;;;4.00;;
11287;SDS011;5700;50.996;7.044;2023-01-28T10:34:15;7.38;;;4.45;;
11287;SDS011;5700;50.996;7.044;2023-01-28T10:37:16;7.53;;;4.05;;
11287;SDS011;5700;50.996;7.044;2023-01-28T10:40:19;8.40;;;4.32;;
11287;SDS011;5700;50.996;7.044;2023-01-28T10:43:22;7.13;;;3.80;;
11287;SDS011;5700;50.996;7.044;2023-01-28T10:46:25;9.85;;;4.80;;
11287;SDS011;5700;50.996;7.044;2023-01-28T10:49:29;8.23;;;4.75;;
11287;SDS011;5700;50.996;7.044;2023-01-28T10:52:32;7.85;;;4.32;;
11287;SDS011;5700;50.996;7.044;2023-01-28T10:55:35;9.65;;;5.18;;
11287;SDS011;5700;50.996;7.044;2023-01-28T10:58:49;9.00;;;5.15;;
11287;SDS011;5700;50.996;7.044;2023-01-28T11:01:58;10.35;;;5.05;;
11287;SDS011;5700;50.996;7.044;2023-01-28T11:05:04;9.75;;;5.70;;
11287;SDS011;5700;50.996;7.044;2023-01-28T11:08:11;8.55;;;5.10;;
11287;SDS011;5700;50.996;7.044;2023-01-28T11:11:15;13.27;;;6.10;;
11287;SDS011;5700;50.996;7.044;2023-01-28T11:14:21;9.80;;;4.97;;
11287;SDS011;5700;50.996;7.044;2023-01-28T11:17:24;10.18;;;5.75;;
11287;SDS011;5700;50.996;7.044;2023-01-28T11:20:27;11.20;;;6.90;;
11287;SDS011;5700;50.996;7.044;2023-01-28T11:23:30;11.15;;;5.82;;
11287;SDS011;5700;50.996;7.044;2023-01-28T11:26:35;12.80;;;7.10;;
11287;SDS011;5700;50.996;7.044;2023-01-28T11:29:38;12.05;;;5.72;;
11287;SDS011;5700;50.996;7.044;2023-01-28T11:32:41;12.93;;;7.10;;
11287;SDS011;5700;50.996;7.044;2023-01-28T11:35:50;12.90;;;6.82;;
11287;SDS011;5700;50.996;7.044;2023-01-28T11:38:54;13.02;;;7.07;;
11287;SDS011;5700;50.996;7.044;2023-01-28T11:42:05;12.15;;;6.80;;
11287;SDS011;5700;50.996;7.044;2023-01-28T11:45:14;12.32;;;7.18;;
11287;SDS011;5700;50.996;7.044;2023-01-28T11:48:19;12.75;;;6.97;;
11287;SDS011;5700;50.996;7.044;2023-01-28T11:51:29;14.85;;;7.32;;
11287;SDS011;5700;50.996;7.044;2023-01-28T11:54:39;12.93;;;7.03;;
11287;SDS011;5700;50.996;7.044;2023-01-28T11:57:49;10.00;;;5.97;;
11287;SDS011;5700;50.996;7.044;2023-01-28T12:00:58;12.55;;;7.13;;
11287;SDS011;5700;50.996;7.044;2023-01-28T12:04:09;11.85;;;7.15;;
11287;SDS011;5700;50.996;7.044;2023-01-28T12:07:21;12.32;;;7.47;;
11287;SDS011;5700;50.996;7.044;2023-01-28T12:10:32;11.57;;;7.03;;
11287;SDS011;5700;50.996;7.044;2023-01-28T12:13:43;12.75;;;7.47;;
11287;SDS011;5700;50.996;7.044;2023-01-28T12:16:54;13.02;;;7.28;;
11287;SDS011;5700;50.996;7.044;2023-01-28T12:20:05;14.48;;;7.65;;
11287;SDS011;5700;50.996;7.044;2023-01-28T12:23:15;12.00;;;7.07;;
11287;SDS011;5700;50.996;7.044;2023-01-28T12:26:25;11.30;;;7.25;;
11287;SDS011;5700;50.996;7.044;2023-01-28T12:29:37;12.55;;;7.40;;
11287;SDS011;5700;50.996;7.044;2023-01-28T12:32:47;14.98;;;7.80;;
11287;SDS011;5700;50.996;7.044;2023-01-28T12:35:57;11.52;;;7.15;;
11287;SDS011;5700;50.996;7.044;2023-01-28T12:39:09;12.48;;;6.93;;
11287;SDS011;5700;50.996;7.044;2023-01-28T12:42:17;11.93;;;7.13;;
11287;SDS011;5700;50.996;7.044;2023-01-28T12:45:25;11.73;;;7.00;;
11287;SDS011;5700;50.996;7.044;2023-01-28T12:48:32;12.95;;;6.85;;
11287;SDS011;5700;50.996;7.044;2023-01-28T12:51:38;13.65;;;7.90;;
11287;SDS011;5700;50.996;7.044;2023-01-28T12:54:49;11.18;;;7.13;;
11287;SDS011;5700;50.996;7.044;2023-01-28T12:57:55;15.38;;;7.88;;
11287;SDS011;5700;50.996;7.044;2023-01-28T13:00:59;12.73;;;7.13;;
11287;SDS011;5700;50.996;7.044;2023-01-28T13:04:05;13.52;;;7.57;;
11287;SDS011;5700;50.996;7.044;2023-01-28T13:07:11;13.00;;;7.95;;
11287;SDS011;5700;50.996;7.044;2023-01-28T13:10:16;12.13;;;6.60;;
11287;SDS011;5700;50.996;7.044;2023-01-28T13:13:24;12.00;;;6.40;;
11287;SDS011;5700;50.996;7.044;2023-01-28T13:16:30;9.90;;;6.05;;
11287;SDS011;5700;50.996;7.044;2023-01-28T13:19:35;12.52;;;6.43;;
11287;SDS011;5700;50.996;7.044;2023-01-28T13:22:38;10.65;;;6.63;;
11287;SDS011;5700;50.996;7.044;2023-01-28T13:25:46;11.25;;;6.57;;
11287;SDS011;5700;50.996;7.044;2023-01-28T13:28:49;8.48;;;5.47;;
11287;SDS011;5700;50.996;7.044;2023-01-28T13:31:53;8.50;;;5.45;;
11287;SDS011;5700;50.996;7.044;2023-01-28T13:34:56;9.38;;;5.65;;
11287;SDS011;5700;50.996;7.044;2023-01-28T13:37:59;7.38;;;4.93;;
11287;SDS011;5700;50.996;7.044;2023-01-28T13:41:06;9.02;;;5.65;;
11287;SDS011;5700;50.996;7.044;2023-01-28T13:44:16;9.60;;;5.22;;
11287;SDS011;5700;50.996;7.044;2023-01-28T13:47:22;8.30;;;5.20;;
11287;SDS011;5700;50.996;7.044;2023-01-28T13:50:30;8.82;;;5.60;;
11287;SDS011;5700;50.996;7.044;2023-01-28T13:53:39;10.02;;;6.47;;
11287;SDS011;5700;50.996;7.044;2023-01-28T13:56:51;9.30;;;6.03;;
11287;SDS011;5700;50.996;7.044;2023-01-28T14:00:04;10.45;;;6.25;;
11287;SDS011;5700;50.996;7.044;2023-01-28T14:03:16;11.05;;;5.95;;
11287;SDS011;5700;50.996;7.044;2023-01-28T14:06:47;10.98;;;6.28;;
11287;SDS011;5700;50.996;7.044;2023-01-28T14:10:00;9.98;;;5.93;;
11287;SDS011;5700;50.996;7.044;2023-01-28T14:16:34;12.10;;;6.60;;
11287;SDS011;5700;50.996;7.044;2023-01-28T14:19:42;10.88;;;6.75;;
11287;SDS011;5700;50.996;7.044;2023-01-28T14:22:44;8.90;;;5.75;;
11287;SDS011;5700;50.996;7.044;2023-01-28T14:25:48;10.70;;;6.25;;
11287;SDS011;5700;50.996;7.044;2023-01-28T14:28:59;11.00;;;6.03;;
11287;SDS011;5700;50.996;7.044;2023-01-28T14:32:07;11.52;;;7.00;;
11287;SDS011;5700;50.996;7.044;2023-01-28T14:35:16;11.10;;;6.47;;
11287;SDS011;5700;50.996;7.044;2023-01-28T14:38:20;8.23;;;5.32;;
11287;SDS011;5700;50.996;7.044;2023-01-28T14:41:24;13.18;;;5.80;;
11287;SDS011;5700;50.996;7.044;2023-01-28T14:44:28;9.25;;;5.68;;
11287;SDS011;5700;50.996;7.044;2023-01-28T14:47:34;8.55;;;5.50;;
11287;SDS011;5700;50.996;7.044;2023-01-28T14:50:49;8.05;;;5.32;;
11287;SDS011;5700;50.996;7.044;2023-01-28T14:54:02;21.23;;;6.40;;
11287;SDS011;5700;50.996;7.044;2023-01-28T14:57:15;9.05;;;5.22;;
11287;SDS011;5700;50.996;7.044;2023-01-28T15:00:29;10.25;;;5.55;;
11287;SDS011;5700;50.996;7.044;2023-01-28T15:03:32;8.90;;;5.10;;
11287;SDS011;5700;50.996;7.044;2023-01-28T15:06:35;9.38;;;5.25;;
11287;SDS011;5700;50.996;7.044;2023-01-28T15:09:37;8.75;;;5.20;;
11287;SDS011;5700;50.996;7.044;2023-01-28T15:12:39;8.35;;;5.20;;
11287;SDS011;5700;50.996;7.044;2023-01-28T15:15:42;8.35;;;4.72;;
11287;SDS011;5700;50.996;7.044;2023-01-28T15:18:48;9.05;;;5.10;;
11287;SDS011;5700;50.996;7.044;2023-01-28T15:21:52;9.55;;;5.53;;
11287;SDS011;5700;50.996;7.044;2023-01-28T15:24:55;9.55;;;5.30;;
11287;SDS011;5700;50.996;7.044;2023-01-28T15:27:58;7.25;;;4.72;;
11287;SDS011;5700;50.996;7.044;2023-01-28T15:31:00;7.95;;;4.88;;
11287;SDS011;5700;50.996;7.044;2023-01-28T15:34:02;8.10;;;4.88;;
11287;SDS011;5700;50.996;7.044;2023-01-28T15:37:11;7.20;;;4.50;;
11287;SDS011;5700;50.996;7.044;2023-01-28T15:40:16;7.68;;;4.35;;
11287;SDS011;5700;50.996;7.044;2023-01-28T15:43:20;6.50;;;4.10;;
11287;SDS011;5700;50.996;7.044;2023-01-28T15:46:23;7.72;;;4.78;;
11287;SDS011;5700;50.996;7.044;2023-01-28T15:49:25;7.43;;;4.07;;
11287;SDS011;5700;50.996;7.044;2023-01-28T15:52:31;6.53;;;4.63;;
11287;SDS011;5700;50.996;7.044;2023-01-28T15:55:35;6.82;;;4.03;;
11287;SDS011;5700;50.996;7.044;2023-01-28T15:58:37;6.80;;;4.35;;
11287;SDS011;5700;50.996;7.044;2023-01-28T16:01:41;8.40;;;4.03;;
11287;SDS011;5700;50.996;7.044;2023-01-28T16:04:42;7.60;;;4.53;;
11287;SDS011;5700;50.996;7.044;2023-01-28T16:07:45;6.25;;;3.47;;
11287;SDS011;5700;50.996;7.044;2023-01-28T16:10:50;5.75;;;2.95;;
11287;SDS011;5700;50.996;7.044;2023-01-28T16:13:52;5.03;;;2.92;;
11287;SDS011;5700;50.996;7.044;2023-01-28T16:16:54;5.45;;;3.08;;
11287;SDS011;5700;50.996;7.044;2023-01-28T16:19:56;6.45;;;3.00;;
11287;SDS011;5700;50.996;7.044;2023-01-28T16:23:00;6.03;;;3.00;;
11287;SDS011;5700;50.996;7.044;2023-01-28T16:26:04;4.90;;;2.85;;
11287;SDS011;5700;50.996;7.044;2023-01-28T16:29:10;6.18;;;3.10;;
11287;SDS011;5700;50.996;7.044;2023-01-28T16:32:24;6.50;;;2.85;;
11287;SDS011;5700;50.996;7.044;2023-01-28T16:35:28;5.82;;;3.03;;
11287;SDS011;5700;50.996;7.044;2023-01-28T16:38:31;6.65;;;3.22;;
11287;SDS011;5700;50.996;7.044;2023-01-28T16:41:33;4.97;;;2.97;;
11287;SDS011;5700;50.996;7.044;2023-01-28T16:44:38;5.63;;;3.42;;
11287;SDS011;5700;50.996;7.044;2023-01-28T16:47:40;8.55;;;4.63;;
11287;SDS011;5700;50.996;7.044;2023-01-28T16:50:41;6.03;;;3.80;;
11287;SDS011;5700;50.996;7.044;2023-01-28T16:53:45;10.80;;;4.53;;
11287;SDS011;5700;50.996;7.044;2023-01-28T16:56:47;10.93;;;5.22;;
11287;SDS011;5700;50.996;7.044;2023-01-28T16:59:48;10.32;;;4.72;;
11287;SDS011;5700;50.996;7.044;2023-01-28T17:02:50;8.88;;;4.18;;
11287;SDS011;5700;50.996;7.044;2023-01-28T17:05:52;6.78;;;3.50;;
11287;SDS011;5700;50.996;7.044;2023-01-28T17:08:55;6.22;;;3.72;;
11287;SDS011;5700;50.996;7.044;2023-01-28T17:11:56;7.35;;;3.47;;
11287;SDS011;5700;50.996;7.044;2023-01-28T17:14:58;5.88;;;2.88;;
11287;SDS011;5700;50.996;7.044;2023-01-28T17:18:00;7.55;;;3.85;;
11287;SDS011;5700;50.996;7.044;2023-01-28T17:21:02;7.03;;;2.88;;
11287;SDS011;5700;50.996;7.044;2023-01-28T17:24:06;5.55;;;3.17;;
11287;SDS011;5700;50.996;7.044;2023-01-28T17:27:07;9.10;;;3.78;;
11287;SDS011;5700;50.996;7.044;2023-01-28T17:30:09;7.45;;;3.60;;
11287;SDS011;5700;50.996;7.044;2023-01-28T17:33:11;8.48;;;4.10;;
11287;SDS011;5700;50.996;7.044;2023-01-28T17:36:13;7.38;;;3.63;;
11287;SDS011;5700;50.996;7.044;2023-01-28T17:39:16;6.80;;;3.22;;
11287;SDS011;5700;50.996;7.044;2023-01-28T17:42:17;6.00;;;3.67;;
11287;SDS011;5700;50.996;7.044;2023-01-28T17:45:19;9.20;;;3.38;;
11287;SDS011;5700;50.996;7.044;2023-01-28T17:48:20;6.95;;;3.22;;
11287;SDS011;5700;50.996;7.044;2023-01-28T17:51:22;6.90;;;3.17;;
11287;SDS011;5700;50.996;7.044;2023-01-28T17:54:25;4.88;;;3.15;;
11287;SDS011;5700;50.996;7.044;2023-01-28T17:57:26;8.20;;;3.88;;
11287;SDS011;5700;50.996;7.044;2023-01-28T18:00:28;8.35;;;3.15;;
11287;SDS011;5700;50.996;7.044;2023-01-28T18:03:30;7.90;;;4.35;;
11287;SDS011;5700;50.996;7.044;2023-01-28T18:06:32;5.57;;;3.67;;
11287;SDS011;5700;50.996;7.044;2023-01-28T18:09:36;7.35;;;3.95;;
11287;SDS011;5700;50.996;7.044;2023-01-28T18:12:38;7.68;;;3.63;;
11287;SDS011;5700;50.996;7.044;2023-01-28T18:15:40;10.23;;;4.60;;
11287;SDS011;5700;50.996;7.044;2023-01-28T18:18:41;8.40;;;4.22;;
11287;SDS011;5700;50.996;7.044;2023-01-28T18:21:43;5.97;;;3.85;;
11287;SDS011;5700;50.996;7.044;2023-01-28T18:24:46;7.32;;;4.03;;
11287;SDS011;5700;50.996;7.044;2023-01-28T18:27:48;11.40;;;5.22;;
11287;SDS011;5700;50.996;7.044;2023-01-28T18:30:51;12.15;;;5.20;;
11287;SDS011;5700;50.996;7.044;2023-01-28T18:33:52;15.75;;;6.80;;
11287;SDS011;5700;50.996;7.044;2023-01-28T18:36:56;15.25;;;7.30;;
11287;SDS011;5700;50.996;7.044;2023-01-28T18:39:59;14.63;;;7.40;;
11287;SDS011;5700;50.996;7.044;2023-01-28T18:43:01;15.30;;;7.00;;
11287;SDS011;5700;50.996;7.044;2023-01-28T18:46:08;11.82;;;6.88;;
11287;SDS011;5700;50.996;7.044;2023-01-28T18:49:11;13.82;;;6.68;;